createdAt,value
2018-09-21T00:01:50.512Z,19.40
2018-09-21T00:04:21.345Z,19.40
2018-09-21T00:06:52.244Z,19.40
2018-09-21T00:09:23.041Z,19.40
2018-09-21T00:11:54.007Z,19.40
2018-09-21T00:14:24.973Z,19.30
2018-09-21T00:16:55.876Z,19.30
2018-09-21T00:19:26.707Z,19.20
2018-09-21T00:21:57.509Z,19.20
2018-09-21T00:24:28.381Z,19.20
2018-09-21T00:26:59.213Z,19.10
2018-09-21T00:29:30.474Z,18.90
2018-09-21T00:32:01.425Z,18.90
2018-09-21T00:34:32.213Z,18.90
2018-09-21T00:37:03.059Z,18.90
2018-09-21T00:39:33.931Z,18.90
2018-09-21T00:42:04.868Z,18.90
2018-09-21T00:44:35.725Z,18.90
2018-09-21T00:47:06.750Z,18.90
2018-09-21T00:49:37.711Z,18.80
2018-09-21T00:52:08.928Z,18.80
2018-09-21T00:54:39.757Z,18.90
2018-09-21T00:57:10.596Z,18.90
2018-09-21T00:59:41.417Z,18.80
2018-09-21T01:02:12.387Z,18.80
2018-09-21T01:04:43.938Z,18.70
2018-09-21T01:07:15.868Z,18.70
2018-09-21T01:09:46.647Z,18.60
2018-09-21T01:12:17.544Z,18.50
2018-09-21T01:14:48.349Z,18.60
2018-09-21T01:17:19.137Z,18.70
2018-09-21T01:19:49.956Z,18.70
2018-09-21T01:22:20.842Z,18.70
2018-09-21T01:24:51.623Z,18.70
2018-09-21T01:27:22.614Z,18.70
2018-09-21T01:29:53.403Z,18.70
2018-09-21T01:32:24.252Z,18.60
2018-09-21T01:34:55.088Z,18.60
2018-09-21T01:37:26.084Z,18.50
2018-09-21T01:39:57.098Z,18.50
2018-09-21T01:42:27.980Z,18.50
2018-09-21T01:44:58.775Z,18.60
2018-09-21T01:47:29.595Z,18.60
2018-09-21T01:50:00.417Z,18.60
2018-09-21T01:52:31.263Z,18.60
2018-09-21T01:55:02.090Z,18.60
2018-09-21T01:57:32.909Z,18.60
2018-09-21T02:00:03.908Z,18.50
2018-09-21T02:02:34.748Z,18.40
2018-09-21T02:05:06.108Z,18.40
2018-09-21T02:07:37.111Z,18.40
2018-09-21T02:10:08.049Z,18.40
2018-09-21T02:12:38.895Z,18.30
2018-09-21T02:15:09.765Z,18.30
2018-09-21T02:17:40.663Z,18.20
2018-09-21T02:20:11.393Z,18.10
2018-09-21T02:22:42.335Z,18.00
2018-09-21T02:25:13.189Z,18.10
2018-09-21T02:27:43.980Z,18.10
2018-09-21T02:30:14.839Z,18.00
2018-09-21T02:32:45.671Z,18.10
2018-09-21T02:35:16.711Z,18.10
2018-09-21T02:37:47.538Z,18.00
2018-09-21T02:40:18.418Z,18.10
2018-09-21T02:42:49.228Z,18.10
2018-09-21T02:45:20.045Z,18.10
2018-09-21T02:47:50.851Z,18.00
2018-09-21T02:50:22.471Z,18.00
2018-09-21T02:52:53.297Z,17.90
2018-09-21T02:55:24.189Z,17.90
2018-09-21T02:57:54.973Z,18.00
2018-09-21T03:00:25.845Z,18.00
2018-09-21T03:02:56.970Z,18.00
2018-09-21T03:05:28.115Z,17.90
2018-09-21T03:07:58.881Z,17.90
2018-09-21T03:10:29.858Z,17.80
2018-09-21T03:13:00.793Z,17.80
2018-09-21T03:15:31.762Z,17.70
2018-09-21T03:18:02.667Z,17.70
2018-09-21T03:20:33.486Z,17.70
2018-09-21T03:23:04.365Z,17.70
2018-09-21T03:25:35.165Z,17.80
2018-09-21T03:28:05.987Z,17.70
2018-09-21T03:30:36.787Z,17.70
2018-09-21T03:33:07.808Z,17.60
2018-09-21T03:35:38.620Z,17.70
2018-09-21T03:38:09.432Z,17.70
2018-09-21T03:40:40.214Z,17.70
2018-09-21T03:43:11.465Z,17.60
2018-09-21T03:45:42.345Z,17.60
2018-09-21T03:48:13.440Z,17.60
2018-09-21T03:50:44.297Z,17.60
2018-09-21T03:53:15.077Z,17.60
2018-09-21T03:55:45.973Z,17.70
2018-09-21T03:58:16.836Z,17.60
2018-09-21T04:00:47.737Z,17.60
2018-09-21T04:03:19.025Z,17.50
2018-09-21T04:05:49.829Z,17.50
2018-09-21T04:08:20.699Z,17.50
2018-09-21T04:10:51.626Z,17.40
2018-09-21T04:13:22.468Z,17.40
2018-09-21T04:15:53.332Z,17.40
2018-09-21T04:18:24.839Z,17.40
2018-09-21T04:20:55.732Z,17.30
2018-09-21T04:23:26.600Z,17.40
2018-09-21T04:25:57.486Z,17.50
2018-09-21T04:28:28.258Z,17.50
2018-09-21T04:30:59.068Z,17.60
2018-09-21T04:33:29.846Z,17.50
2018-09-21T04:36:00.749Z,17.70
2018-09-21T04:38:31.535Z,17.80
2018-09-21T04:41:02.513Z,17.90
2018-09-21T04:43:33.405Z,17.80
2018-09-21T04:46:04.349Z,17.80
2018-09-21T04:48:35.128Z,17.80
2018-09-21T04:51:05.997Z,17.80
2018-09-21T04:53:36.874Z,17.90
2018-09-21T04:56:08.001Z,17.70
2018-09-21T04:58:38.882Z,17.80
2018-09-21T05:01:09.789Z,18.00
2018-09-21T05:03:40.701Z,18.20
2018-09-21T05:06:11.548Z,18.30
2018-09-21T05:08:42.417Z,18.40
2018-09-21T05:11:13.356Z,18.50
2018-09-21T05:13:44.227Z,18.70
2018-09-21T05:16:15.023Z,19.00
2018-09-21T05:18:45.978Z,19.10
2018-09-21T05:21:17.656Z,19.20
2018-09-21T05:23:48.632Z,19.40
2018-09-21T05:26:19.586Z,19.50
2018-09-21T05:28:50.447Z,19.40
2018-09-21T05:31:21.429Z,19.50
2018-09-21T05:33:52.297Z,19.60
2018-09-21T05:36:23.155Z,19.90
2018-09-21T05:38:54.061Z,20.20
2018-09-21T05:41:24.899Z,20.50
2018-09-21T05:43:55.839Z,20.90
2018-09-21T05:46:26.690Z,21.20
2018-09-21T05:48:57.496Z,21.50
2018-09-21T05:51:28.345Z,21.60
2018-09-21T05:53:59.293Z,21.70
2018-09-21T05:56:30.189Z,21.70
2018-09-21T05:59:01.092Z,21.80
2018-09-21T06:01:31.981Z,21.80
2018-09-21T06:04:02.896Z,21.70
2018-09-21T06:06:33.750Z,22.20
2018-09-21T06:09:07.469Z,22.60
2018-09-21T06:11:38.326Z,22.80
2018-09-21T06:14:09.695Z,22.70
2018-09-21T06:16:41.014Z,22.90
2018-09-21T06:19:11.891Z,23.10
2018-09-21T06:21:42.738Z,23.50
2018-09-21T06:24:13.562Z,23.80
2018-09-21T06:26:44.404Z,24.20
2018-09-21T06:29:15.244Z,24.30
2018-09-21T06:31:46.107Z,24.20
2018-09-21T06:34:16.966Z,24.30
2018-09-21T06:36:47.757Z,24.50
2018-09-21T06:39:18.631Z,24.60
2018-09-21T06:41:49.512Z,24.90
2018-09-21T06:44:20.380Z,24.90
2018-09-21T06:46:51.274Z,25.10
2018-09-21T06:49:22.253Z,25.00
2018-09-21T06:51:53.210Z,25.20
2018-09-21T06:54:24.086Z,24.40
2018-09-21T06:56:54.917Z,24.50
2018-09-21T06:59:25.907Z,24.70
2018-09-21T07:01:56.860Z,25.20
2018-09-21T07:04:27.638Z,25.70
2018-09-21T07:06:58.478Z,25.90
2018-09-21T07:09:29.337Z,26.10
2018-09-21T07:12:00.164Z,26.10
2018-09-21T07:14:31.008Z,26.00
2018-09-21T07:17:01.934Z,25.70
2018-09-21T07:19:33.345Z,25.70
2018-09-21T07:22:04.712Z,26.10
2018-09-21T07:24:35.668Z,26.50
2018-09-21T07:27:06.535Z,26.80
2018-09-21T07:29:37.361Z,26.10
2018-09-21T07:32:08.383Z,26.40
2018-09-21T07:34:39.238Z,26.80
2018-09-21T07:37:10.125Z,26.90
2018-09-21T07:39:40.929Z,27.10
2018-09-21T07:42:11.835Z,27.50
2018-09-21T07:44:42.686Z,28.20
2018-09-21T07:47:13.612Z,28.40
2018-09-21T07:49:44.469Z,28.20
2018-09-21T07:52:15.427Z,28.10
2018-09-21T07:54:46.283Z,28.50
2018-09-21T07:57:17.289Z,28.50
2018-09-21T07:59:48.273Z,28.80
2018-09-21T08:02:19.097Z,28.50
2018-09-21T08:04:50.526Z,28.50
2018-09-21T08:07:21.396Z,29.20
2018-09-21T08:09:52.313Z,29.30
2018-09-21T08:12:23.151Z,29.40
2018-09-21T08:14:53.993Z,29.30
2018-09-21T08:17:24.966Z,29.50
2018-09-21T08:19:56.088Z,29.20
2018-09-21T08:22:27.036Z,28.70
2018-09-21T08:24:57.880Z,29.10
2018-09-21T08:27:28.887Z,29.50
2018-09-21T08:29:59.767Z,29.50
2018-09-21T08:32:30.704Z,29.40
2018-09-21T08:35:01.607Z,28.90
2018-09-21T08:37:32.529Z,28.90
2018-09-21T08:40:03.295Z,28.60
2018-09-21T08:42:34.170Z,28.70
2018-09-21T08:45:05.354Z,29.20
2018-09-21T08:47:36.209Z,29.50
2018-09-21T08:50:09.251Z,30.20
2018-09-21T08:52:40.125Z,30.20
2018-09-21T08:55:10.945Z,30.00
2018-09-21T08:57:41.911Z,29.40
2018-09-21T09:00:12.801Z,29.30
2018-09-21T09:02:43.741Z,29.60
2018-09-21T09:05:14.732Z,30.00
2018-09-21T09:07:46.197Z,30.00
2018-09-21T09:10:17.386Z,30.40
2018-09-21T09:12:48.361Z,30.20
2018-09-21T09:15:19.171Z,30.30
2018-09-21T09:17:49.975Z,30.60
2018-09-21T09:20:20.842Z,31.20
2018-09-21T09:22:51.822Z,31.20
2018-09-21T09:25:22.737Z,30.80
2018-09-21T09:27:53.568Z,31.30
2018-09-21T09:30:24.345Z,31.10
2018-09-21T09:32:55.310Z,30.90
2018-09-21T09:35:26.403Z,31.00
2018-09-21T09:37:57.306Z,31.50
2018-09-21T09:40:28.294Z,32.20
2018-09-21T09:42:59.167Z,31.90
2018-09-21T09:45:29.996Z,32.00
2018-09-21T09:48:00.852Z,32.30
2018-09-21T09:50:31.811Z,31.90
2018-09-21T09:53:02.589Z,31.40
2018-09-21T09:55:33.438Z,31.40
2018-09-21T09:58:04.465Z,31.40
2018-09-21T10:00:36.347Z,31.20
2018-09-21T10:03:07.181Z,31.30
2018-09-21T10:05:42.830Z,31.80
2018-09-21T10:08:14.193Z,32.20
2018-09-21T10:10:46.257Z,32.40
2018-09-21T10:13:17.257Z,31.80
2018-09-21T10:15:48.116Z,31.50
2018-09-21T10:18:19.039Z,31.50
2018-09-21T10:20:50.063Z,31.50
2018-09-21T10:23:20.849Z,31.30
2018-09-21T10:25:51.702Z,31.50
2018-09-21T10:28:22.748Z,31.70
2018-09-21T10:30:53.421Z,31.40
2018-09-21T10:33:24.526Z,30.80
2018-09-21T10:35:55.254Z,30.60
2018-09-21T10:38:26.092Z,30.40
2018-09-21T10:40:56.950Z,30.60
2018-09-21T10:43:27.885Z,30.90
2018-09-21T10:45:58.732Z,31.20
2018-09-21T10:48:29.551Z,31.20
2018-09-21T10:51:00.556Z,30.80
2018-09-21T10:53:31.304Z,30.40
2018-09-21T10:56:02.256Z,30.30
2018-09-21T10:58:33.361Z,30.30
2018-09-21T11:01:04.265Z,30.70
2018-09-21T11:03:35.195Z,31.20
2018-09-21T11:06:06.146Z,31.30
2018-09-21T11:08:36.946Z,31.10
2018-09-21T11:11:07.861Z,31.00
2018-09-21T11:13:38.737Z,30.70
2018-09-21T11:16:09.594Z,30.20
2018-09-21T11:18:40.419Z,30.20
2018-09-21T11:21:11.351Z,30.30
2018-09-21T11:23:42.338Z,29.90
2018-09-21T11:26:13.309Z,29.80
2018-09-21T11:28:44.186Z,29.80
2018-09-21T11:31:15.081Z,29.70
2018-09-21T11:33:45.942Z,29.70
2018-09-21T11:36:16.827Z,29.60
2018-09-21T11:38:47.802Z,29.60
2018-09-21T11:41:18.587Z,29.80
2018-09-21T11:43:49.525Z,30.10
2018-09-21T11:46:20.673Z,30.00
2018-09-21T11:48:52.240Z,29.70
2018-09-21T11:51:23.173Z,29.50
2018-09-21T11:53:54.046Z,29.50
2018-09-21T11:56:24.917Z,29.40
2018-09-21T11:58:55.907Z,29.30
2018-09-21T12:01:26.872Z,29.40
2018-09-21T12:03:57.728Z,29.50
2018-09-21T12:06:28.525Z,29.50
2018-09-21T12:08:59.480Z,29.20
2018-09-21T12:11:30.436Z,29.00
2018-09-21T12:14:01.346Z,28.90
2018-09-21T12:16:32.220Z,28.70
2018-09-21T12:19:03.035Z,28.80
2018-09-21T12:21:33.866Z,28.70
2018-09-21T12:24:04.783Z,28.50
2018-09-21T12:26:35.680Z,28.30
2018-09-21T12:29:06.514Z,28.20
2018-09-21T12:31:37.401Z,28.20
2018-09-21T12:34:08.266Z,28.10
2018-09-21T12:36:39.123Z,28.10
2018-09-21T12:39:13.020Z,28.00
2018-09-21T12:41:44.435Z,27.90
2018-09-21T12:44:17.192Z,27.80
2018-09-21T12:46:48.051Z,27.80
2018-09-21T12:49:18.889Z,27.80
2018-09-21T12:51:49.704Z,27.80
2018-09-21T12:54:20.599Z,27.80
2018-09-21T12:56:52.433Z,27.90
2018-09-21T12:59:23.266Z,27.90
2018-09-21T13:01:54.298Z,27.80
2018-09-21T13:04:25.251Z,27.70
2018-09-21T13:06:56.164Z,27.80
2018-09-21T13:09:29.061Z,27.80
2018-09-21T13:12:00.131Z,27.80
2018-09-21T13:14:31.044Z,27.70
2018-09-21T13:17:02.616Z,27.90
2018-09-21T13:19:33.591Z,27.90
2018-09-21T13:22:04.508Z,27.80
2018-09-21T13:24:35.375Z,27.70
2018-09-21T13:27:06.281Z,27.70
2018-09-21T13:29:37.120Z,27.80
2018-09-21T13:32:08.172Z,27.90
2018-09-21T13:34:39.106Z,27.80
2018-09-21T13:37:10.072Z,27.90
2018-09-21T13:39:40.947Z,27.70
2018-09-21T13:42:11.832Z,27.70
2018-09-21T13:44:42.602Z,27.60
2018-09-21T13:47:13.383Z,27.70
2018-09-21T13:49:44.726Z,27.70
2018-09-21T13:52:15.742Z,27.70
2018-09-21T13:54:46.657Z,27.60
2018-09-21T13:57:17.545Z,27.60
2018-09-21T13:59:48.478Z,27.70
2018-09-21T14:02:19.314Z,27.80
2018-09-21T14:04:50.097Z,27.80
2018-09-21T14:07:20.913Z,27.80
2018-09-21T14:09:51.833Z,27.80
2018-09-21T14:12:22.826Z,27.70
2018-09-21T14:14:53.723Z,27.70
2018-09-21T14:17:24.694Z,27.60
2018-09-21T14:19:55.880Z,27.50
2018-09-21T14:22:26.798Z,27.60
2018-09-21T14:24:57.625Z,27.60
2018-09-21T14:27:28.623Z,27.60
2018-09-21T14:29:59.534Z,27.60
2018-09-21T14:32:30.657Z,27.50
2018-09-21T14:35:01.539Z,27.60
2018-09-21T14:37:32.425Z,27.60
2018-09-21T14:40:03.312Z,27.60
2018-09-21T14:42:34.252Z,27.60
2018-09-21T14:45:05.537Z,27.60
2018-09-21T14:47:36.557Z,27.50
2018-09-21T14:50:07.567Z,27.50
2018-09-21T14:52:38.482Z,27.40
2018-09-21T14:55:09.707Z,27.40
2018-09-21T14:57:40.574Z,27.40
2018-09-21T15:00:11.643Z,27.30
2018-09-21T15:02:42.485Z,27.30
2018-09-21T15:05:13.459Z,27.30
2018-09-21T15:07:44.430Z,27.40
2018-09-21T15:10:15.401Z,27.30
2018-09-21T15:12:46.387Z,27.30
2018-09-21T15:15:17.257Z,27.30
2018-09-21T15:17:50.672Z,27.30
2018-09-21T15:20:21.804Z,27.20
2018-09-21T15:22:52.609Z,27.20
2018-09-21T15:25:23.517Z,27.20
2018-09-21T15:27:54.609Z,27.10
2018-09-21T15:30:25.466Z,27.10
2018-09-21T15:32:56.276Z,27.10
2018-09-21T15:35:27.185Z,27.10
2018-09-21T15:37:58.051Z,27.10
2018-09-21T15:40:28.970Z,27.10
2018-09-21T15:42:59.842Z,27.00
2018-09-21T15:45:30.767Z,27.00
2018-09-21T15:48:01.585Z,27.00
2018-09-21T15:50:32.449Z,27.00
2018-09-21T15:53:03.323Z,26.90
2018-09-21T15:55:34.556Z,26.90
2018-09-21T15:58:05.584Z,26.90
2018-09-21T16:00:36.649Z,26.80
2018-09-21T16:03:07.843Z,26.90
2018-09-21T16:05:38.669Z,26.90
2018-09-21T16:08:09.576Z,26.80
2018-09-21T16:10:40.475Z,26.80
2018-09-21T16:13:11.339Z,26.80
2018-09-21T16:15:42.174Z,26.70
2018-09-21T16:18:12.987Z,26.60
2018-09-21T16:20:43.821Z,26.60
2018-09-21T16:23:14.733Z,26.60
2018-09-21T16:25:45.571Z,26.50
2018-09-21T16:28:16.508Z,26.40
2018-09-21T16:30:47.623Z,26.40
2018-09-21T16:33:18.439Z,26.40
2018-09-21T16:35:49.308Z,26.30
2018-09-21T16:38:20.169Z,26.30
2018-09-21T16:40:51.055Z,26.10
2018-09-21T16:43:21.930Z,26.10
2018-09-21T16:45:52.753Z,26.20
2018-09-21T16:48:23.700Z,26.10
2018-09-21T16:50:54.630Z,26.10
2018-09-21T16:53:25.559Z,26.10
2018-09-21T16:55:56.410Z,26.00
2018-09-21T16:58:27.489Z,26.00
2018-09-21T17:00:58.435Z,25.90
2018-09-21T17:03:29.368Z,25.90
2018-09-21T17:06:00.202Z,25.80
2018-09-21T17:08:31.064Z,25.80
2018-09-21T17:11:01.928Z,25.70
2018-09-21T17:13:33.006Z,25.60
2018-09-21T17:16:03.824Z,25.60
2018-09-21T17:18:34.710Z,25.60
2018-09-21T17:21:05.608Z,25.60
2018-09-21T17:23:36.593Z,25.50
2018-09-21T17:26:07.557Z,25.40
2018-09-21T17:28:38.481Z,25.30
2018-09-21T17:31:09.316Z,25.30
2018-09-21T17:33:40.178Z,25.30
2018-09-21T17:36:10.996Z,25.30
2018-09-21T17:38:42.087Z,25.20
2018-09-21T17:41:13.238Z,25.20
2018-09-21T17:43:44.064Z,25.20
2018-09-21T17:46:14.916Z,25.20
2018-09-21T17:48:45.792Z,25.10
2018-09-21T17:51:16.881Z,25.00
2018-09-21T17:53:47.778Z,25.10
2018-09-21T17:56:18.610Z,25.10
2018-09-21T17:58:49.487Z,25.00
2018-09-21T18:01:20.392Z,25.00
2018-09-21T18:03:51.299Z,25.00
2018-09-21T18:06:22.164Z,24.90
2018-09-21T18:08:53.138Z,24.80
2018-09-21T18:11:24.052Z,24.80
2018-09-21T18:13:55.012Z,24.70
2018-09-21T18:16:25.974Z,24.60
2018-09-21T18:18:56.890Z,24.60
2018-09-21T18:21:27.794Z,24.60
2018-09-21T18:23:58.821Z,24.50
2018-09-21T18:26:29.728Z,24.50
2018-09-21T18:29:00.765Z,24.50
2018-09-21T18:31:31.803Z,24.50
2018-09-21T18:34:03.123Z,24.40
2018-09-21T18:36:34.200Z,24.40
2018-09-21T18:39:06.776Z,24.40
2018-09-21T18:41:37.889Z,24.30
2018-09-21T18:44:08.953Z,24.20
2018-09-21T18:46:39.882Z,24.20
2018-09-21T18:49:11.649Z,24.10
2018-09-21T18:51:42.755Z,24.10
2018-09-21T18:54:13.982Z,24.10
2018-09-21T18:56:45.412Z,24.00
2018-09-21T18:59:16.477Z,23.90
2018-09-21T19:01:47.482Z,24.00
2018-09-21T19:04:18.873Z,24.00
2018-09-21T19:06:50.246Z,23.90
2018-09-21T19:09:21.644Z,23.80
2018-09-21T19:11:53.667Z,23.80
2018-09-21T19:14:25.874Z,23.80
2018-09-21T19:16:56.969Z,23.80
2018-09-21T19:19:28.050Z,23.70
2018-09-21T19:21:59.344Z,23.60
2018-09-21T19:24:30.544Z,23.50
2018-09-21T19:27:01.817Z,23.50
2018-09-21T19:29:33.900Z,23.50
2018-09-21T19:32:05.298Z,23.40
2018-09-21T19:34:36.696Z,23.40
2018-09-21T19:37:08.332Z,23.40
2018-09-21T19:39:39.430Z,23.50
2018-09-21T19:42:11.087Z,23.50
2018-09-21T19:44:42.573Z,23.40
2018-09-21T19:47:13.672Z,23.40
2018-09-21T19:49:44.680Z,23.40
2018-09-21T19:52:15.555Z,23.30
2018-09-21T19:54:46.464Z,23.20
2018-09-21T19:57:17.285Z,23.20
2018-09-21T19:59:48.266Z,23.00
2018-09-21T20:02:19.315Z,23.10
2018-09-21T20:04:50.240Z,23.00
2018-09-21T20:07:21.138Z,22.90
2018-09-21T20:09:52.138Z,22.80
2018-09-21T20:12:23.119Z,22.80
2018-09-21T20:14:54.019Z,22.80
2018-09-21T20:17:24.851Z,22.70
2018-09-21T20:19:55.704Z,22.60
2018-09-21T20:22:26.627Z,22.60
2018-09-21T20:24:57.506Z,22.50
2018-09-21T20:27:28.304Z,22.50
2018-09-21T20:31:04.719Z,22.40
2018-09-21T20:33:36.819Z,22.50
2018-09-21T20:36:07.689Z,22.50
2018-09-21T20:38:38.624Z,22.50
2018-09-21T20:41:09.608Z,22.40
2018-09-21T20:43:40.471Z,22.40
2018-09-21T20:46:11.416Z,22.50
2018-09-21T20:48:42.296Z,22.40
2018-09-21T20:51:13.156Z,22.40
2018-09-21T20:53:44.626Z,22.40
2018-09-21T20:56:15.546Z,22.30
2018-09-21T20:58:46.446Z,22.20
2018-09-21T21:01:17.372Z,22.10
2018-09-21T21:03:48.267Z,21.90
2018-09-21T21:06:19.264Z,21.80
2018-09-21T21:08:50.126Z,21.80
2018-09-21T21:11:21.095Z,21.90
2018-09-21T21:13:52.063Z,21.90
2018-09-21T21:16:23.528Z,22.00
2018-09-21T21:18:54.414Z,22.00
2018-09-21T21:21:25.389Z,22.00
2018-09-21T21:23:56.232Z,22.10
2018-09-21T21:26:27.066Z,22.10
2018-09-21T21:28:57.965Z,22.10
2018-09-21T21:31:28.883Z,22.10
2018-09-21T21:33:59.694Z,22.10
2018-09-21T21:36:30.596Z,21.90
2018-09-21T21:39:01.475Z,21.80
2018-09-21T21:41:32.387Z,21.80
2018-09-21T21:44:03.205Z,21.70
2018-09-21T21:46:34.012Z,21.70
2018-09-21T21:49:04.824Z,21.60
2018-09-21T21:51:35.734Z,21.70
2018-09-21T21:54:06.579Z,21.60
2018-09-21T21:56:37.400Z,21.60
2018-09-21T21:59:08.372Z,21.70
2018-09-21T22:01:45.558Z,21.60
2018-09-21T22:04:17.704Z,21.60
2018-09-21T22:06:48.729Z,21.70
2018-09-21T22:09:19.958Z,21.80
2018-09-21T22:11:55.913Z,21.90
2018-09-21T22:14:26.700Z,21.70
2018-09-21T22:16:57.956Z,21.60
2018-09-21T22:19:29.319Z,21.40
2018-09-21T22:22:00.147Z,21.30
2018-09-21T22:24:30.976Z,21.30
2018-09-21T22:27:01.804Z,21.30
2018-09-21T22:29:32.729Z,21.20
2018-09-21T22:32:03.565Z,21.20
2018-09-21T22:34:34.358Z,21.00
2018-09-21T22:37:05.178Z,21.10
2018-09-21T22:39:36.184Z,21.10
2018-09-21T22:42:06.629Z,21.00
2018-09-21T22:44:37.497Z,21.00
2018-09-21T22:47:08.767Z,21.00
2018-09-21T22:49:39.567Z,20.90
2018-09-21T22:52:10.500Z,21.00
2018-09-21T22:54:41.281Z,21.20
2018-09-21T22:57:12.105Z,21.30
2018-09-21T22:59:42.900Z,21.50
2018-09-21T23:02:13.740Z,21.70
2018-09-21T23:04:44.591Z,21.90
2018-09-21T23:07:15.529Z,21.90
2018-09-21T23:09:46.253Z,22.00
2018-09-21T23:12:17.097Z,22.00
2018-09-21T23:14:47.997Z,22.10
2018-09-21T23:17:18.897Z,22.10
2018-09-21T23:19:49.761Z,22.10
2018-09-21T23:22:20.620Z,22.00
2018-09-21T23:24:51.479Z,22.00
2018-09-21T23:27:22.493Z,21.90
2018-09-21T23:29:53.410Z,21.80
2018-09-21T23:32:24.388Z,21.80
2018-09-21T23:34:55.153Z,21.80
2018-09-21T23:37:25.983Z,21.70
2018-09-21T23:39:56.769Z,21.80
2018-09-21T23:42:27.658Z,21.70
2018-09-21T23:44:58.404Z,21.70
2018-09-21T23:47:29.237Z,21.70
2018-09-21T23:50:00.025Z,21.60
2018-09-21T23:52:30.822Z,21.70
2018-09-21T23:55:01.632Z,21.60
2018-09-21T23:57:32.472Z,21.60
